Time;durP1;ratioP1;P1;durP2;ratioP2;P2;SDS_P1;SDS_P2;PMS_P1;PMS_P2;Temp;Humidity;BMP_temperature;BMP_pressure;BME280_temperature;BME280_humidity;BME280_pressure;Samples;Min_cycle;Max_cycle;Signal;HPM_P1;HPM_P2
2023/08/23 00:04:49;;;;;;;5.95;4.53;;;;;;;17.58;63.18;100963.03;20830308;28;20304;-82
2023/08/23 00:14:52;;;;;;;5.53;3.58;;;;;;;16.87;66.20;100960.00;20833517;28;20729;-81
2023/08/23 00:24:53;;;;;;;8.52;4.28;;;;;;;17.31;63.76;100955.31;20832836;28;20311;-80
2023/08/23 00:34:57;;;;;;;6.57;3.70;;;;;;;17.40;62.75;100950.31;20820658;28;20657;-83
2023/08/23 00:44:58;;;;;;;9.10;4.25;;;;;;;17.17;63.23;100944.28;20831166;28;20283;-81
2023/08/23 00:55:02;;;;;;;5.97;3.55;;;;;;;16.57;65.46;100938.69;20829374;28;20290;-81
2023/08/23 01:05:04;;;;;;;3.75;3.15;;;;;;;16.58;64.49;100946.03;20847904;28;20200;-81
2023/08/23 01:15:11;;;;;;;8.07;3.75;;;;;;;16.98;63.02;100952.63;20847684;28;20227;-81
2023/08/23 01:25:14;;;;;;;6.45;3.22;;;;;;;17.00;62.49;100941.75;20823832;28;20725;-81
2023/08/23 01:35:19;;;;;;;5.13;3.90;;;;;;;16.89;63.19;100945.44;20821604;28;20697;-81
2023/08/23 01:45:22;;;;;;;5.75;3.83;;;;;;;16.83;63.47;100930.63;20830603;28;20677;-81
2023/08/23 01:55:24;;;;;;;6.72;3.97;;;;;;;16.61;64.10;100933.97;20776382;28;20225;-80
2023/08/23 02:05:27;;;;;;;5.88;3.45;;;;;;;16.60;64.11;100927.44;20738731;28;20201;-82
2023/08/23 02:15:29;;;;;;;5.35;3.67;;;;;;;16.95;62.86;100919.22;20746540;28;20308;-81
2023/08/23 02:25:32;;;;;;;5.50;3.80;;;;;;;16.80;63.01;100919.97;20749338;28;20308;-81
2023/08/23 02:35:34;;;;;;;7.80;3.80;;;;;;;16.54;63.73;100922.34;20740919;28;20669;-81
2023/08/23 02:45:40;;;;;;;6.65;3.08;;;;;;;16.75;63.48;100917.38;20747411;28;20565;-81
2023/08/23 02:55:41;;;;;;;4.47;2.88;;;;;;;16.42;63.78;100921.13;20815728;28;20228;-80
2023/08/23 03:05:53;;;;;;;7.50;3.85;;;;;;;16.39;64.71;100924.66;20828744;28;20201;-81
2023/08/23 03:15:55;;;;;;;5.72;3.47;;;;;;;16.40;63.83;100909.28;20829023;28;20612;-81
2023/08/23 03:25:58;;;;;;;4.68;3.45;;;;;;;16.11;65.26;100903.81;20829150;28;20205;-80
2023/08/23 03:36:00;;;;;;;5.88;3.42;;;;;;;15.96;66.25;100896.00;20825886;28;20643;-81
2023/08/23 03:46:03;;;;;;;4.72;3.47;;;;;;;15.59;67.53;100895.06;20837345;28;20196;-80
2023/08/23 03:56:06;;;;;;;8.75;3.83;;;;;;;15.98;65.13;100888.78;20778647;28;20447;-79
2023/08/23 04:06:09;;;;;;;10.65;3.78;;;;;;;15.85;65.68;100904.13;20757114;28;20201;-81
2023/08/23 04:16:12;;;;;;;7.47;3.83;;;;;;;15.88;65.47;100899.75;20769601;28;20316;-81
2023/08/23 04:26:15;;;;;;;6.45;3.45;;;;;;;15.59;65.89;100895.84;20763712;28;20594;-81
2023/08/23 04:36:17;;;;;;;4.82;3.38;;;;;;;15.71;65.60;100904.44;20754950;28;20513;-81
2023/08/23 04:46:20;;;;;;;3.72;3.38;;;;;;;15.60;66.06;100906.03;20754786;28;20203;-81
2023/08/23 04:56:22;;;;;;;6.13;3.95;;;;;;;15.53;66.68;100919.13;20806582;28;20224;-81
2023/08/23 05:06:25;;;;;;;6.18;3.58;;;;;;;15.95;65.93;100934.91;20817344;28;20200;-80
2023/08/23 05:16:26;;;;;;;7.00;3.83;;;;;;;16.26;64.47;100920.16;20839661;28;20335;-83
2023/08/23 05:26:29;;;;;;;5.68;3.53;;;;;;;16.33;64.68;100913.91;20831218;28;20616;-83
2023/08/23 05:36:31;;;;;;;7.60;3.88;;;;;;;16.38;64.79;100917.34;20761367;28;20220;-83
2023/08/23 05:46:34;;;;;;;9.27;4.32;;;;;;;16.43;64.75;100927.63;20836412;28;20279;-82
2023/08/23 05:56:36;;;;;;;10.75;4.88;;;;;;;16.88;63.44;100910.50;20777395;28;20235;-84
2023/08/23 06:06:39;;;;;;;8.07;4.30;;;;;;;16.68;65.37;100931.34;20796979;28;20200;-85
2023/08/23 06:16:41;;;;;;;8.18;5.05;;;;;;;17.52;62.17;100921.00;20839702;28;20834;-79
2023/08/23 06:26:45;;;;;;;8.13;4.82;;;;;;;17.31;64.35;100918.31;20825409;28;20204;-79
2023/08/23 06:36:48;;;;;;;6.70;4.63;;;;;;;18.12;62.16;100917.00;20833367;28;20216;-86
2023/08/23 06:46:51;;;;;;;7.32;5.43;;;;;;;18.41;61.00;100929.97;20811810;28;20283;-84
2023/08/23 06:56:53;;;;;;;9.73;5.10;;;;;;;17.82;64.08;100930.78;20796995;28;20315;-81
2023/08/23 07:06:57;;;;;;;9.13;5.40;;;;;;;18.17;64.33;100933.84;20800703;28;20215;-85
2023/08/23 07:16:59;;;;;;;15.02;8.68;;;;;;;17.89;62.86;100948.09;20879439;28;20520;-82
2023/08/23 07:27:02;;;;;;;12.75;8.20;;;;;;;18.72;59.93;100953.97;20846935;28;20283;-81
2023/08/23 07:37:03;;;;;;;14.10;9.30;;;;;;;18.78;56.91;100958.19;20846003;28;20240;-83
2023/08/23 07:47:07;;;;;;;17.20;9.77;;;;;;;19.72;54.60;100968.53;20845236;28;20236;-82
2023/08/23 07:57:09;;;;;;;20.90;10.25;;;;;;;19.67;53.40;100966.78;20842643;28;20238;-84
2023/08/23 08:07:12;;;;;;;16.77;9.38;;;;;;;19.54;53.53;100968.97;20846651;28;20624;-86
2023/08/23 08:17:14;;;;;;;14.48;7.88;;;;;;;19.31;53.46;100974.56;20865037;28;20224;-86
2023/08/23 08:27:17;;;;;;;12.18;6.93;;;;;;;20.15;50.15;100970.22;20843095;28;20291;-87
2023/08/23 08:37:21;;;;;;;13.40;7.00;;;;;;;20.63;48.18;100972.38;20826489;28;20216;-86
2023/08/23 08:47:24;;;;;;;9.15;5.07;;;;;;;21.06;47.77;100987.34;20762663;28;20272;-85
2023/08/23 08:57:28;;;;;;;7.45;4.55;;;;;;;21.16;46.61;100980.16;20809467;28;20331;-85
2023/08/23 09:07:39;;;;;;;7.75;3.50;;;;;;;20.96;46.60;100988.00;20802022;28;20598;-86
2023/08/23 09:17:41;;;;;;;12.23;4.47;;;;;;;21.50;46.54;100972.47;20823924;28;20664;-86
2023/08/23 09:27:45;;;;;;;7.30;3.80;;;;;;;22.07;44.38;100969.13;20801419;28;20199;-85
2023/08/23 09:37:48;;;;;;;10.07;3.97;;;;;;;22.10;47.49;100962.59;20779051;28;20220;-84
2023/08/23 09:47:54;;;;;;;7.07;4.18;;;;;;;21.92;45.34;100950.13;20798812;28;20652;-85
2023/08/23 09:57:56;;;;;;;7.22;4.30;;;;;;;22.61;45.09;100936.06;20801243;28;20697;-87
2023/08/23 10:07:59;;;;;;;8.00;4.13;;;;;;;22.59;44.15;100927.06;20822518;28;20303;-87
2023/08/23 10:18:03;;;;;;;7.22;4.13;;;;;;;22.48;43.97;100935.56;20886688;28;20581;-86
2023/08/23 10:28:07;;;;;;;5.07;3.33;;;;;;;22.88;44.56;100919.47;20840381;28;20204;-80
2023/08/23 10:38:10;;;;;;;7.18;3.90;;;;;;;24.07;42.58;100911.84;20833634;28;20226;-80
2023/08/23 10:48:14;;;;;;;7.45;3.20;;;;;;;23.26;43.23;100903.72;20821325;28;20203;-81
2023/08/23 10:58:17;;;;;;;7.40;3.45;;;;;;;22.78;42.90;100909.56;20837122;28;20235;-79
2023/08/23 11:08:22;;;;;;;3.75;2.28;;;;;;;23.70;42.94;100899.84;20874477;28;20222;-80
2023/08/23 11:18:23;;;;;;;6.45;3.08;;;;;;;23.76;41.61;100890.44;20856688;28;20227;-81
2023/08/23 11:28:27;;;;;;;4.72;1.40;;;;;;;25.10;38.82;100888.00;20837087;28;20211;-79
2023/08/23 11:38:29;;;;;;;5.25;2.83;;;;;;;23.41;39.99;100896.00;20798204;28;20294;-79
2023/08/23 11:48:32;;;;;;;10.00;2.72;;;;;;;23.89;40.22;100903.22;20802828;28;20232;-79
2023/08/23 11:58:34;;;;;;;4.38;2.30;;;;;;;24.22;38.14;100899.16;20787356;28;20324;-80
2023/08/23 12:08:37;;;;;;;3.22;2.22;;;;;;;24.55;38.20;100895.06;20798566;28;20208;-79
2023/08/23 12:18:38;;;;;;;7.53;2.80;;;;;;;24.41;38.42;100888.50;20816851;28;20748;-83
2023/08/23 12:28:42;;;;;;;9.93;2.55;;;;;;;25.03;37.38;100867.88;20788805;28;20200;-80
2023/08/23 12:38:43;;;;;;;3.47;2.30;;;;;;;25.48;36.67;100860.31;20778209;28;20225;-80
2023/08/23 12:48:46;;;;;;;3.72;1.55;;;;;;;25.51;33.89;100853.72;20798591;28;20204;-80
2023/08/23 12:58:49;;;;;;;5.68;2.70;;;;;;;24.86;35.12;100861.75;20801678;28;20264;-79
2023/08/23 13:08:52;;;;;;;5.07;2.20;;;;;;;25.07;33.67;100837.03;20820804;28;20196;-78
2023/08/23 13:18:54;;;;;;;5.07;1.75;;;;;;;25.25;31.92;100829.16;20784511;28;20621;-79
2023/08/23 13:28:57;;;;;;;3.58;2.05;;;;;;;25.97;32.00;100821.75;20788855;28;20190;-79
2023/08/23 13:38:58;;;;;;;3.72;2.33;;;;;;;25.27;30.48;100820.91;20780982;28;20645;-79
2023/08/23 13:49:02;;;;;;;5.75;2.50;;;;;;;25.81;31.47;100815.69;20792493;28;20224;-79
2023/08/23 13:59:04;;;;;;;7.05;3.20;;;;;;;25.29;34.24;100810.63;20710539;28;22109;-79
2023/08/23 14:09:08;;;;;;;6.22;2.05;;;;;;;25.69;31.95;100798.84;20706858;28;20208;-80
2023/08/23 14:19:10;;;;;;;6.05;2.50;;;;;;;26.23;32.04;100786.50;20704820;28;20530;-79
2023/08/23 14:29:13;;;;;;;2.70;2.17;;;;;;;25.53;32.16;100782.91;20702079;28;20256;-79
2023/08/23 14:39:15;;;;;;;2.88;1.80;;;;;;;26.00;29.65;100778.44;20716472;28;20287;-79
2023/08/23 14:49:18;;;;;;;3.70;2.35;;;;;;;25.97;30.37;100778.50;20699202;28;20230;-79
2023/08/23 14:59:19;;;;;;;4.30;2.13;;;;;;;25.66;31.26;100780.34;20790377;28;20243;-78
2023/08/23 15:09:22;;;;;;;3.95;2.22;;;;;;;26.13;30.84;100772.16;20782797;28;20203;-79
2023/08/23 15:19:24;;;;;;;5.35;2.08;;;;;;;25.79;30.59;100766.28;20778190;28;20240;-79
2023/08/23 15:29:28;;;;;;;3.28;1.88;;;;;;;25.49;30.54;100763.97;20780074;28;20536;-78
2023/08/23 15:39:29;;;;;;;7.03;2.10;;;;;;;25.22;31.81;100767.41;20788586;28;20316;-78
2023/08/23 15:49:32;;;;;;;4.90;1.90;;;;;;;26.08;32.26;100750.38;20794206;28;20233;-78
2023/08/23 15:59:34;;;;;;;4.38;2.13;;;;;;;25.33;34.15;100760.81;20707989;28;20232;-81
2023/08/23 16:09:38;;;;;;;3.80;2.13;;;;;;;25.47;32.54;100749.16;20711265;28;20208;-78
2023/08/23 16:19:39;;;;;;;6.50;1.80;;;;;;;25.60;31.67;100742.47;20711549;28;20254;-79
2023/08/23 16:29:42;;;;;;;5.43;2.13;;;;;;;25.13;32.88;100751.81;20712464;28;20216;-79
2023/08/23 16:39:44;;;;;;;3.90;2.40;;;;;;;25.16;35.14;100748.09;20701860;28;20222;-78
2023/08/23 16:49:47;;;;;;;5.10;2.30;;;;;;;25.01;35.48;100740.78;20705940;28;20221;-79
2023/08/23 16:59:51;;;;;;;2.90;1.95;;;;;;;25.47;34.86;100743.41;20783811;28;20221;-79
2023/08/23 17:09:54;;;;;;;3.60;1.60;;;;;;;25.01;35.81;100727.19;20774312;28;20212;-78
2023/08/23 17:19:56;;;;;;;4.88;1.50;;;;;;;24.73;36.22;100733.06;20780911;28;20228;-78
2023/08/23 17:30:02;;;;;;;5.22;1.95;;;;;;;25.09;36.37;100739.47;20785954;28;20842;-80
2023/08/23 17:40:05;;;;;;;5.43;2.20;;;;;;;24.95;36.64;100740.38;20793292;28;20228;-78
2023/08/23 17:50:09;;;;;;;6.30;1.85;;;;;;;24.93;37.51;100743.69;20784980;28;20248;-78
2023/08/23 18:00:12;;;;;;;2.72;1.20;;;;;;;24.73;38.89;100761.84;20791672;28;20225;-77
2023/08/23 18:10:15;;;;;;;1.98;1.17;;;;;;;24.47;40.35;100749.56;20792363;28;20280;-79
2023/08/23 18:20:23;;;;;;;2.00;1.52;;;;;;;24.25;41.16;100757.44;20797095;28;20230;-82
2023/08/23 18:30:28;;;;;;;2.47;1.15;;;;;;;24.08;41.65;100743.84;20776865;28;20258;-85
2023/08/23 18:40:30;;;;;;;2.72;1.83;;;;;;;23.65;42.05;100765.19;20771256;28;20664;-82
2023/08/23 18:50:33;;;;;;;3.22;1.45;;;;;;;22.99;44.61;100773.22;20768282;28;20308;-86
2023/08/23 19:00:35;;;;;;;3.92;1.90;;;;;;;22.69;46.73;100782.88;20778862;28;20216;-82
2023/08/23 19:10:42;;;;;;;5.28;2.10;;;;;;;22.88;46.34;100778.84;20780016;28;20204;-84
2023/08/23 19:20:43;;;;;;;3.10;2.30;;;;;;;22.08;49.25;100790.19;20796955;28;20673;-86
2023/08/23 19:30:50;;;;;;;4.45;2.70;;;;;;;21.87;51.40;100795.75;20803712;28;20203;-84
2023/08/23 19:40:53;;;;;;;3.72;2.97;;;;;;;22.44;49.60;100804.84;20816216;28;20232;-86
2023/08/23 19:51:02;;;;;;;5.10;3.08;;;;;;;21.72;50.44;100811.94;20797408;28;20254;-84
2023/08/23 20:01:08;;;;;;;7.03;3.13;;;;;;;21.36;53.45;100805.00;20810554;28;20225;-86
2023/08/23 20:11:11;;;;;;;3.80;2.83;;;;;;;21.14;55.18;100797.38;20824146;28;20200;-83
2023/08/23 20:21:13;;;;;;;6.32;3.15;;;;;;;21.27;53.92;100793.06;20812658;28;20220;-86
2023/08/23 20:31:16;;;;;;;7.32;4.20;;;;;;;21.21;55.25;100800.34;20811492;28;20214;-87
2023/08/23 20:41:18;;;;;;;9.93;4.30;;;;;;;21.08;53.02;100796.88;20801435;28;20820;-83
2023/08/23 20:51:21;;;;;;;5.40;4.15;;;;;;;20.59;55.57;100797.03;20798575;28;20587;-82
2023/08/23 21:01:24;;;;;;;7.93;3.60;;;;;;;20.34;56.20;100795.81;20802943;28;20537;-86
2023/08/23 21:11:27;;;;;;;6.95;3.72;;;;;;;20.66;56.08;100791.41;20823671;28;20203;-84
2023/08/23 21:21:29;;;;;;;7.05;3.63;;;;;;;20.17;57.64;100799.19;20812008;28;20303;-83
2023/08/23 21:31:33;;;;;;;4.82;4.00;;;;;;;20.44;56.80;100788.59;20805947;28;20201;-85
2023/08/23 21:41:35;;;;;;;4.93;3.47;;;;;;;20.30;56.41;100777.78;20807764;28;20681;-81
2023/08/23 21:51:38;;;;;;;4.82;3.30;;;;;;;19.63;57.65;100766.00;20816844;28;20234;-84
2023/08/23 22:01:39;;;;;;;5.28;3.08;;;;;;;20.19;54.58;100771.91;20812740;28;20224;-81
2023/08/23 22:11:43;;;;;;;4.70;3.05;;;;;;;19.92;55.44;100768.16;20804748;28;20208;-84
2023/08/23 22:21:44;;;;;;;5.78;3.38;;;;;;;19.62;56.80;100768.03;20802328;28;20621;-83
2023/08/23 22:31:49;;;;;;;4.70;3.30;;;;;;;20.06;54.14;100772.50;20804333;28;20212;-85
2023/08/23 22:41:51;;;;;;;4.53;3.17;;;;;;;19.69;55.28;100779.59;20815547;28;20322;-81
2023/08/23 22:51:54;;;;;;;4.85;2.90;;;;;;;19.75;55.90;100762.97;20839386;28;20607;-85
2023/08/23 23:01:56;;;;;;;8.88;3.45;;;;;;;19.74;56.88;100771.94;20844000;28;20259;-86
2023/08/23 23:11:59;;;;;;;6.35;3.63;;;;;;;19.34;57.60;100756.13;20830696;28;20196;-86
2023/08/23 23:22:01;;;;;;;5.95;3.58;;;;;;;19.39;57.17;100757.81;20837374;28;20232;-83
2023/08/23 23:32:05;;;;;;;5.72;3.47;;;;;;;19.65;56.79;100763.59;20830502;28;20235;-82
2023/08/23 23:42:07;;;;;;;4.75;3.70;;;;;;;19.12;58.19;100760.53;20839903;28;20219;-85
2023/08/23 23:52:10;;;;;;;4.35;3.78;;;;;;;18.51;61.55;100758.41;20809195;28;20315;-81
